createdAt,value
2019-04-07T00:01:45.546Z,99.90
2019-04-07T00:04:14.589Z,99.90
2019-04-07T00:06:43.539Z,99.90
2019-04-07T00:09:12.541Z,99.90
2019-04-07T00:11:41.467Z,99.90
2019-04-07T00:14:10.409Z,99.90
2019-04-07T00:16:40.063Z,99.90
2019-04-07T00:19:09.829Z,99.90
2019-04-07T00:21:38.816Z,99.90
2019-04-07T00:24:08.155Z,99.90
2019-04-07T00:26:37.040Z,99.90
2019-04-07T00:29:06.034Z,99.90
2019-04-07T00:31:35.216Z,99.90
2019-04-07T00:34:05.253Z,99.90
2019-04-07T00:36:35.036Z,99.90
2019-04-07T00:39:05.995Z,99.90
2019-04-07T00:41:35.370Z,99.90
2019-04-07T00:44:05.021Z,99.90
2019-04-07T00:46:34.439Z,99.90
2019-04-07T00:49:04.009Z,99.90
2019-04-07T00:51:33.257Z,99.90
2019-04-07T00:54:02.637Z,99.90
2019-04-07T00:56:31.820Z,99.90
2019-04-07T00:59:01.078Z,99.90
2019-04-07T01:01:30.551Z,99.90
2019-04-07T01:03:59.900Z,99.90
2019-04-07T01:06:29.440Z,99.90
2019-04-07T01:08:58.996Z,99.90
2019-04-07T01:11:28.096Z,99.90
2019-04-07T01:13:57.023Z,99.90
2019-04-07T01:16:26.259Z,99.90
2019-04-07T01:18:55.308Z,99.90
2019-04-07T01:21:24.916Z,99.90
2019-04-07T01:23:54.399Z,99.90
2019-04-07T01:26:23.883Z,99.90
2019-04-07T01:28:54.516Z,99.90
2019-04-07T01:31:24.190Z,99.90
2019-04-07T01:33:53.270Z,99.90
2019-04-07T01:36:22.636Z,99.90
2019-04-07T01:38:52.140Z,99.90
2019-04-07T01:41:38.606Z,99.90
2019-04-07T01:44:29.745Z,99.90
2019-04-07T01:47:27.681Z,99.90
2019-04-07T01:50:22.144Z,99.90
2019-04-07T01:52:59.691Z,99.90
2019-04-07T01:55:57.505Z,99.90
2019-04-07T01:58:42.842Z,99.90
2019-04-07T02:01:27.435Z,99.90
2019-04-07T02:04:18.414Z,99.90
2019-04-07T02:07:24.674Z,99.90
2019-04-07T02:10:20.918Z,99.90
2019-04-07T02:13:16.531Z,99.90
2019-04-07T02:15:56.922Z,99.90
2019-04-07T02:18:40.266Z,99.90
2019-04-07T02:21:37.606Z,99.90
2019-04-07T02:24:24.542Z,99.90
2019-04-07T02:27:15.359Z,99.90
2019-04-07T02:30:03.823Z,99.90
2019-04-07T02:32:44.601Z,99.90
2019-04-07T02:35:39.177Z,99.90
2019-04-07T02:38:30.020Z,99.90
2019-04-07T02:41:17.819Z,99.90
2019-04-07T02:44:25.349Z,99.90
2019-04-07T02:47:08.614Z,99.90
2019-04-07T02:49:50.172Z,99.90
2019-04-07T02:52:42.902Z,99.90
2019-04-07T02:55:34.119Z,99.90
2019-04-07T02:58:20.951Z,99.90
2019-04-07T03:01:02.696Z,99.90
2019-04-07T03:03:57.617Z,99.90
2019-04-07T03:06:49.767Z,99.90
2019-04-07T03:09:49.224Z,99.90
2019-04-07T03:12:37.548Z,99.90
2019-04-07T03:15:13.080Z,99.90
2019-04-07T03:17:55.004Z,99.90
2019-04-07T03:20:32.573Z,99.90
2019-04-07T03:23:09.956Z,99.90
2019-04-07T03:26:00.970Z,99.90
2019-04-07T03:28:47.976Z,99.90
2019-04-07T03:31:38.965Z,99.90
2019-04-07T03:34:20.394Z,99.90
2019-04-07T03:37:22.707Z,99.90
2019-04-07T03:39:39.266Z,99.90
2019-04-07T03:42:15.700Z,99.90
2019-04-07T03:45:02.591Z,99.90
2019-04-07T03:47:44.464Z,99.90
2019-04-07T03:50:33.364Z,99.90
2019-04-07T03:53:20.123Z,99.90
2019-04-07T03:55:55.352Z,99.90
2019-04-07T03:58:39.679Z,99.90
2019-04-07T04:01:35.527Z,99.90
2019-04-07T04:04:24.160Z,99.90
2019-04-07T04:07:33.956Z,99.90
2019-04-07T04:10:08.552Z,99.90
2019-04-07T04:12:55.270Z,99.90
2019-04-07T04:15:38.046Z,99.90
2019-04-07T04:18:07.130Z,99.90
2019-04-07T04:20:37.110Z,99.90
2019-04-07T04:23:06.136Z,99.90
2019-04-07T04:25:34.969Z,99.90
2019-04-07T04:28:04.945Z,99.90
2019-04-07T04:30:34.230Z,99.90
2019-04-07T04:33:03.988Z,99.90
2019-04-07T04:35:34.008Z,99.90
2019-04-07T04:38:03.779Z,99.90
2019-04-07T04:40:32.780Z,99.90
2019-04-07T04:43:02.698Z,99.90
2019-04-07T04:45:31.774Z,99.90
2019-04-07T04:48:00.666Z,99.90
2019-04-07T04:50:29.935Z,99.90
2019-04-07T04:52:59.896Z,99.90
2019-04-07T04:55:30.476Z,99.90
2019-04-07T04:57:59.372Z,99.90
2019-04-07T05:00:28.599Z,99.90
2019-04-07T05:02:58.147Z,99.90
2019-04-07T05:05:28.001Z,99.90
2019-04-07T05:08:02.903Z,99.90
2019-04-07T05:10:27.643Z,99.90
2019-04-07T05:12:57.187Z,99.90
2019-04-07T05:15:26.075Z,99.90
2019-04-07T05:17:55.004Z,99.90
2019-04-07T05:20:24.031Z,99.90
2019-04-07T05:22:53.462Z,99.90
2019-04-07T05:25:22.850Z,99.90
2019-04-07T05:27:51.947Z,99.90
2019-04-07T05:30:20.901Z,99.90
2019-04-07T05:32:49.809Z,99.90
2019-04-07T05:35:18.795Z,99.90
2019-04-07T05:37:59.085Z,99.90
2019-04-07T05:40:19.154Z,99.90
2019-04-07T05:42:48.335Z,99.90
2019-04-07T05:45:17.384Z,99.90
2019-04-07T05:47:48.659Z,99.90
2019-04-07T05:50:16.903Z,99.90
2019-04-07T05:52:46.537Z,99.90
2019-04-07T05:55:15.475Z,99.90
2019-04-07T05:57:44.311Z,99.90
2019-04-07T06:00:16.325Z,99.90
2019-04-07T06:02:45.584Z,99.90
2019-04-07T06:05:16.306Z,99.90
2019-04-07T06:07:45.924Z,99.90
2019-04-07T06:10:15.452Z,99.90
2019-04-07T06:12:47.162Z,99.90
2019-04-07T06:15:19.253Z,99.90
2019-04-07T06:17:46.240Z,99.90
2019-04-07T06:20:17.028Z,99.90
2019-04-07T06:22:46.993Z,99.90
2019-04-07T06:25:17.039Z,99.90
2019-04-07T06:27:46.650Z,99.90
2019-04-07T06:30:17.528Z,99.90
2019-04-07T06:32:47.224Z,99.90
2019-04-07T06:35:16.912Z,99.90
2019-04-07T06:37:46.506Z,99.90
2019-04-07T06:40:20.372Z,99.90
2019-04-07T06:42:46.526Z,99.90
2019-04-07T06:45:21.786Z,99.90
2019-04-07T06:47:53.435Z,99.90
2019-04-07T06:50:49.321Z,99.90
2019-04-07T06:53:38.163Z,99.90
2019-04-07T06:56:13.041Z,99.90
2019-04-07T06:59:00.362Z,99.90
2019-04-07T07:01:41.080Z,99.60
2019-04-07T07:04:28.212Z,99.90
2019-04-07T07:07:25.091Z,99.90
2019-04-07T07:10:27.438Z,99.90
2019-04-07T07:13:28.633Z,99.90
2019-04-07T07:16:07.903Z,99.60
2019-04-07T07:19:05.197Z,99.40
2019-04-07T07:22:02.413Z,98.60
2019-04-07T07:24:31.395Z,98.20
2019-04-07T07:27:00.455Z,97.60
2019-04-07T07:29:29.980Z,97.40
2019-04-07T07:32:03.455Z,96.50
2019-04-07T07:34:29.606Z,95.80
2019-04-07T07:36:58.999Z,95.60
2019-04-07T07:39:29.602Z,95.40
2019-04-07T07:41:59.359Z,95.70
2019-04-07T07:44:28.919Z,94.20
2019-04-07T07:46:58.179Z,93.60
2019-04-07T07:49:28.843Z,94.20
2019-04-07T07:51:58.154Z,93.70
2019-04-07T07:54:28.230Z,93.30
2019-04-07T07:56:58.097Z,92.40
2019-04-07T07:59:30.572Z,91.60
2019-04-07T08:01:57.880Z,91.00
2019-04-07T08:04:27.659Z,86.60
2019-04-07T08:06:56.925Z,86.00
2019-04-07T08:09:26.961Z,85.80
2019-04-07T08:11:56.407Z,86.70
2019-04-07T08:14:25.994Z,84.50
2019-04-07T08:16:55.447Z,84.50
2019-04-07T08:19:29.681Z,83.00
2019-04-07T08:21:58.441Z,78.50
2019-04-07T08:24:28.130Z,74.80
2019-04-07T08:26:58.362Z,76.80
2019-04-07T08:29:28.018Z,76.60
2019-04-07T08:31:57.668Z,74.70
2019-04-07T08:34:26.584Z,74.40
2019-04-07T08:36:55.594Z,72.60
2019-04-07T08:39:26.956Z,68.60
2019-04-07T08:41:55.096Z,70.10
2019-04-07T08:44:26.943Z,72.00
2019-04-07T08:46:57.777Z,67.20
2019-04-07T08:49:25.635Z,67.40
2019-04-07T08:51:55.037Z,66.90
2019-04-07T08:54:24.014Z,64.20
2019-04-07T08:56:56.296Z,62.70
2019-04-07T08:59:23.551Z,61.30
2019-04-07T09:01:54.187Z,60.60
2019-04-07T09:04:22.903Z,56.80
2019-04-07T09:06:51.935Z,56.80
2019-04-07T09:09:31.355Z,51.50
2019-04-07T09:11:54.137Z,55.90
2019-04-07T09:14:22.321Z,53.30
2019-04-07T09:17:05.475Z,53.90
2019-04-07T09:20:10.554Z,51.60
2019-04-07T09:22:56.083Z,50.20
2019-04-07T09:25:37.873Z,49.90
2019-04-07T09:28:28.483Z,48.50
2019-04-07T09:31:06.240Z,47.70
2019-04-07T09:33:58.114Z,47.00
2019-04-07T09:36:33.575Z,44.50
2019-04-07T09:39:20.250Z,43.60
2019-04-07T09:41:57.237Z,43.40
2019-04-07T09:44:48.398Z,43.10
2019-04-07T09:47:36.932Z,43.80
2019-04-07T09:50:28.820Z,44.00
2019-04-07T09:53:19.723Z,45.10
2019-04-07T09:56:16.221Z,44.60
2019-04-07T09:59:04.951Z,41.80
2019-04-07T10:01:51.816Z,43.40
2019-04-07T10:04:49.707Z,42.50
2019-04-07T10:07:40.318Z,39.10
2019-04-07T10:10:21.390Z,37.10
2019-04-07T10:13:20.406Z,36.60
2019-04-07T10:16:08.855Z,35.50
2019-04-07T10:19:03.718Z,34.10
2019-04-07T10:22:04.814Z,34.20
2019-04-07T10:24:52.092Z,31.80
2019-04-07T10:27:46.458Z,33.30
2019-04-07T10:30:28.185Z,30.00
2019-04-07T10:33:15.697Z,31.00
2019-04-07T10:35:59.314Z,30.60
2019-04-07T10:38:50.834Z,30.10
2019-04-07T10:41:42.722Z,28.60
2019-04-07T10:44:32.364Z,28.90
2019-04-07T10:47:26.169Z,26.90
2019-04-07T10:50:14.303Z,24.60
2019-04-07T10:52:52.512Z,24.70
2019-04-07T10:55:40.565Z,23.60
2019-04-07T10:58:26.546Z,24.70
2019-04-07T11:01:15.514Z,23.90
2019-04-07T11:04:07.259Z,23.90
2019-04-07T11:07:01.974Z,24.10
2019-04-07T11:09:50.499Z,24.40
2019-04-07T11:12:37.879Z,23.10
2019-04-07T11:15:27.422Z,23.60
2019-04-07T11:18:12.303Z,23.10
2019-04-07T11:20:49.241Z,23.10
2019-04-07T11:23:34.850Z,23.40
2019-04-07T11:26:12.404Z,23.10
2019-04-07T11:28:50.535Z,21.80
2019-04-07T11:31:41.727Z,21.40
2019-04-07T11:34:17.977Z,20.60
2019-04-07T11:37:12.839Z,21.50
2019-04-07T11:39:54.593Z,19.30
2019-04-07T11:42:43.028Z,19.30
2019-04-07T11:45:19.416Z,18.40
2019-04-07T11:48:01.632Z,18.90
2019-04-07T11:50:36.976Z,19.60
2019-04-07T11:53:31.860Z,20.30
2019-04-07T11:56:20.557Z,20.40
2019-04-07T11:59:17.838Z,20.30
2019-04-07T12:01:54.192Z,17.70
2019-04-07T12:04:35.678Z,17.70
2019-04-07T12:07:19.139Z,18.30
2019-04-07T12:10:05.776Z,18.20
2019-04-07T12:12:45.173Z,18.10
2019-04-07T12:15:33.466Z,18.10
2019-04-07T12:18:19.266Z,17.00
2019-04-07T12:21:20.046Z,18.20
2019-04-07T12:24:06.046Z,17.20
2019-04-07T12:26:43.618Z,17.00
2019-04-07T12:29:23.260Z,18.30
2019-04-07T12:32:09.645Z,18.00
2019-04-07T12:34:49.768Z,18.90
2019-04-07T12:37:32.957Z,19.40
2019-04-07T12:40:22.252Z,18.70
2019-04-07T12:43:01.442Z,19.30
2019-04-07T12:45:50.935Z,17.90
2019-04-07T12:48:29.339Z,18.20
2019-04-07T12:51:22.409Z,18.20
2019-04-07T12:54:00.181Z,18.20
2019-04-07T12:56:47.790Z,18.40
2019-04-07T12:59:41.845Z,17.20
2019-04-07T13:02:21.667Z,16.80
2019-04-07T13:05:09.064Z,16.50
2019-04-07T13:07:52.144Z,16.70
2019-04-07T13:10:39.357Z,16.20
2019-04-07T13:13:29.538Z,16.10
2019-04-07T13:16:28.354Z,16.40
2019-04-07T13:19:09.313Z,17.10
2019-04-07T13:21:57.357Z,17.10
2019-04-07T13:24:45.474Z,16.70
2019-04-07T13:27:21.132Z,17.50
2019-04-07T13:29:59.778Z,16.70
2019-04-07T13:32:50.397Z,16.80
2019-04-07T13:35:25.398Z,16.20
2019-04-07T13:38:29.303Z,17.00
2019-04-07T13:41:23.484Z,17.00
2019-04-07T13:44:10.748Z,17.30
2019-04-07T13:46:59.064Z,16.20
2019-04-07T13:49:38.227Z,16.00
2019-04-07T13:52:29.028Z,15.60
2019-04-07T13:55:20.918Z,15.70
2019-04-07T13:58:12.063Z,15.40
2019-04-07T14:00:48.361Z,16.10
2019-04-07T14:03:37.033Z,15.70
2019-04-07T14:06:24.804Z,15.90
2019-04-07T14:09:12.741Z,16.00
2019-04-07T14:12:08.284Z,15.20
2019-04-07T14:14:49.821Z,15.00
2019-04-07T14:17:33.415Z,15.40
2019-04-07T14:20:15.019Z,15.80
2019-04-07T14:23:02.214Z,16.80
2019-04-07T14:25:45.341Z,15.70
2019-04-07T14:28:22.423Z,15.50
2019-04-07T14:31:13.655Z,15.10
2019-04-07T14:34:20.636Z,15.20
2019-04-07T14:36:55.165Z,14.90
2019-04-07T14:39:39.010Z,16.50
2019-04-07T14:42:29.426Z,15.20
2019-04-07T14:45:18.097Z,15.20
2019-04-07T14:48:16.177Z,15.70
2019-04-07T14:50:59.317Z,16.70
2019-04-07T14:53:48.451Z,15.80
2019-04-07T14:56:37.576Z,15.20
2019-04-07T14:59:29.650Z,16.10
2019-04-07T15:02:00.831Z,16.00
2019-04-07T15:04:48.848Z,16.50
2019-04-07T15:07:36.648Z,16.90
2019-04-07T15:10:15.952Z,16.30
2019-04-07T15:12:47.149Z,16.60
2019-04-07T15:15:17.079Z,15.80
2019-04-07T15:17:47.787Z,16.40
2019-04-07T15:20:17.538Z,16.50
2019-04-07T15:22:48.480Z,15.90
2019-04-07T15:25:18.392Z,16.70
2019-04-07T15:27:47.749Z,17.20
2019-04-07T15:30:17.036Z,16.30
2019-04-07T15:32:46.876Z,17.90
2019-04-07T15:35:29.975Z,17.70
2019-04-07T15:37:59.196Z,17.50
2019-04-07T15:40:28.251Z,17.40
2019-04-07T15:43:01.472Z,16.80
2019-04-07T15:45:28.663Z,17.10
2019-04-07T15:48:00.283Z,17.30
2019-04-07T15:50:30.164Z,16.40
2019-04-07T15:52:59.581Z,15.90
2019-04-07T15:55:43.145Z,16.50
2019-04-07T15:57:59.732Z,16.50
2019-04-07T16:00:32.329Z,16.60
2019-04-07T16:03:00.071Z,16.50
2019-04-07T16:05:30.337Z,16.20
2019-04-07T16:08:01.109Z,15.50
2019-04-07T16:10:30.252Z,16.40
2019-04-07T16:12:59.603Z,16.20
2019-04-07T16:15:29.652Z,15.20
2019-04-07T16:17:58.840Z,14.30
2019-04-07T16:20:32.302Z,15.60
2019-04-07T16:22:58.345Z,15.30
2019-04-07T16:25:28.191Z,15.60
2019-04-07T16:27:58.713Z,15.80
2019-04-07T16:30:27.763Z,16.10
2019-04-07T16:32:59.671Z,16.30
2019-04-07T16:35:27.822Z,16.50
2019-04-07T16:37:58.373Z,16.50
2019-04-07T16:40:28.055Z,17.10
2019-04-07T16:43:09.166Z,17.00
2019-04-07T16:45:29.300Z,16.80
2019-04-07T16:47:58.892Z,15.60
2019-04-07T16:50:29.449Z,16.80
2019-04-07T16:53:02.646Z,16.60
2019-04-07T16:55:37.898Z,16.70
2019-04-07T16:58:09.899Z,17.70
2019-04-07T17:00:39.848Z,17.90
2019-04-07T17:03:09.889Z,16.30
2019-04-07T17:05:40.951Z,16.70
2019-04-07T17:08:10.531Z,18.10
2019-04-07T17:10:46.483Z,17.90
2019-04-07T17:13:24.718Z,18.10
2019-04-07T17:15:50.781Z,17.70
2019-04-07T17:18:36.798Z,17.90
2019-04-07T17:21:11.719Z,18.00
2019-04-07T17:23:40.922Z,18.20
2019-04-07T17:26:10.224Z,18.10
2019-04-07T17:28:42.073Z,18.30
2019-04-07T17:31:14.281Z,18.00
2019-04-07T17:33:43.779Z,18.80
2019-04-07T17:36:17.647Z,19.60
2019-04-07T17:39:03.952Z,19.20
2019-04-07T17:41:32.951Z,19.40
2019-04-07T17:44:23.137Z,19.30
2019-04-07T17:47:09.666Z,20.20
2019-04-07T17:50:04.235Z,20.10
2019-04-07T17:52:44.079Z,20.00
2019-04-07T17:55:33.207Z,20.50
2019-04-07T17:58:09.181Z,20.60
2019-04-07T18:01:20.576Z,20.70
2019-04-07T18:04:16.205Z,20.30
2019-04-07T18:07:06.083Z,20.80
2019-04-07T18:09:57.399Z,21.10
2019-04-07T18:12:40.166Z,21.40
2019-04-07T18:15:37.370Z,21.60
2019-04-07T18:18:28.782Z,22.10
2019-04-07T18:21:30.354Z,22.00
2019-04-07T18:24:18.014Z,22.00
2019-04-07T18:27:11.007Z,22.10
2019-04-07T18:29:52.785Z,22.30
2019-04-07T18:32:46.990Z,22.30
2019-04-07T18:35:34.764Z,22.70
2019-04-07T18:38:36.301Z,23.30
2019-04-07T18:41:23.971Z,23.50
2019-04-07T18:44:07.732Z,24.10
2019-04-07T18:46:55.025Z,24.40
2019-04-07T18:49:39.445Z,24.80
2019-04-07T18:52:26.783Z,24.80
2019-04-07T18:55:30.090Z,24.80
2019-04-07T18:58:25.660Z,24.40
2019-04-07T19:01:14.058Z,24.80
2019-04-07T19:03:58.892Z,25.10
2019-04-07T19:06:41.161Z,25.00
2019-04-07T19:09:17.818Z,25.40
2019-04-07T19:12:20.752Z,25.50
2019-04-07T19:15:09.224Z,25.50
2019-04-07T19:18:01.756Z,25.90
2019-04-07T19:20:55.929Z,26.30
2019-04-07T19:23:44.031Z,26.40
2019-04-07T19:26:33.557Z,26.90
2019-04-07T19:29:12.052Z,27.50
2019-04-07T19:31:59.708Z,27.80
2019-04-07T19:34:48.241Z,28.90
2019-04-07T19:37:35.135Z,28.30
2019-04-07T19:40:16.702Z,29.20
2019-04-07T19:42:52.128Z,29.70
2019-04-07T19:45:39.275Z,29.60
2019-04-07T19:48:17.612Z,29.80
2019-04-07T19:51:05.356Z,29.80
2019-04-07T19:54:16.033Z,29.80
2019-04-07T19:57:07.323Z,29.60
2019-04-07T19:59:45.230Z,29.20
2019-04-07T20:02:32.624Z,28.50
2019-04-07T20:05:19.627Z,29.00
2019-04-07T20:08:06.544Z,29.30
2019-04-07T20:10:45.084Z,29.40
2019-04-07T20:13:29.748Z,30.00
2019-04-07T20:16:12.840Z,29.90
2019-04-07T20:18:59.387Z,30.60
2019-04-07T20:21:55.367Z,29.80
2019-04-07T20:24:56.589Z,30.00
2019-04-07T20:27:33.924Z,30.50
2019-04-07T20:30:23.837Z,31.70
2019-04-07T20:33:20.754Z,31.90
2019-04-07T20:36:19.388Z,32.60
2019-04-07T20:38:57.924Z,32.80
2019-04-07T20:41:34.450Z,33.10
2019-04-07T20:44:25.840Z,33.40
2019-04-07T20:47:12.205Z,33.80
2019-04-07T20:50:02.952Z,34.40
2019-04-07T20:52:53.620Z,34.20
2019-04-07T20:55:41.352Z,34.80
2019-04-07T20:58:42.158Z,36.10
2019-04-07T21:01:20.843Z,36.80
2019-04-07T21:04:08.876Z,37.10
2019-04-07T21:07:02.166Z,37.90
2019-04-07T21:09:56.642Z,38.10
2019-04-07T21:12:45.426Z,40.90
2019-04-07T21:15:27.516Z,41.40
2019-04-07T21:18:17.774Z,42.50
2019-04-07T21:20:56.717Z,42.40
2019-04-07T21:23:37.348Z,42.80
2019-04-07T21:26:17.576Z,41.40
2019-04-07T21:29:07.401Z,43.60
2019-04-07T21:32:08.827Z,44.70
2019-04-07T21:35:01.418Z,44.50
2019-04-07T21:37:40.716Z,43.50
2019-04-07T21:40:28.660Z,43.10
2019-04-07T21:43:05.810Z,41.90
2019-04-07T21:49:00.690Z,41.50
2019-04-07T21:51:53.466Z,41.60
2019-04-07T21:54:32.797Z,42.00
2019-04-07T21:57:09.924Z,42.10
2019-04-07T21:59:49.949Z,42.70
2019-04-07T22:02:29.262Z,42.20
2019-04-07T22:05:07.242Z,42.90
2019-04-07T22:07:41.923Z,43.10
2019-04-07T22:10:12.372Z,43.30
2019-04-07T22:12:42.231Z,43.60
2019-04-07T22:15:13.917Z,44.10
2019-04-07T22:17:42.190Z,45.70
2019-04-07T22:20:12.614Z,46.10
2019-04-07T22:22:43.004Z,47.70
2019-04-07T22:25:13.035Z,49.20
2019-04-07T22:27:43.019Z,49.60
2019-04-07T22:30:13.220Z,50.70
2019-04-07T22:32:42.749Z,51.10
2019-04-07T22:35:12.719Z,52.30
2019-04-07T22:37:41.843Z,53.50
2019-04-07T22:40:15.178Z,55.50
2019-04-07T22:42:45.863Z,56.90
2019-04-07T22:45:15.034Z,57.70
2019-04-07T22:47:44.532Z,59.30
2019-04-07T22:50:14.927Z,60.20
2019-04-07T22:52:47.437Z,61.80
2019-04-07T22:55:14.906Z,62.50
2019-04-07T22:57:44.152Z,64.90
2019-04-07T23:00:21.187Z,65.00
2019-04-07T23:02:50.255Z,66.10
2019-04-07T23:05:19.225Z,67.50
2019-04-07T23:07:48.194Z,68.80
2019-04-07T23:10:17.952Z,69.70
2019-04-07T23:12:47.822Z,70.20
2019-04-07T23:15:17.523Z,71.20
2019-04-07T23:17:47.221Z,72.50
2019-04-07T23:20:17.180Z,72.90
2019-04-07T23:22:46.667Z,74.40
2019-04-07T23:25:15.820Z,75.40
2019-04-07T23:27:45.582Z,74.60
2019-04-07T23:30:17.302Z,74.50
2019-04-07T23:32:46.323Z,74.50
2019-04-07T23:35:15.279Z,75.20
2019-04-07T23:37:44.130Z,76.10
2019-04-07T23:40:14.671Z,79.00
2019-04-07T23:42:44.605Z,78.60
2019-04-07T23:45:14.425Z,75.50
2019-04-07T23:47:43.349Z,75.50
2019-04-07T23:50:12.930Z,76.30
2019-04-07T23:52:41.786Z,77.70
2019-04-07T23:55:10.762Z,78.80
2019-04-07T23:57:40.223Z,79.40
